Time;durP1;ratioP1;P1;durP2;ratioP2;P2;SDS_P1;SDS_P2;PMS_P1;PMS_P2;Temp;Humidity;BMP_temperature;BMP_pressure;BME280_temperature;BME280_humidity;BME280_pressure;Samples;Min_cycle;Max_cycle;Signal;HPM_P1;HPM_P2
2022/02/22 00:00:45;;;;;;;11.97;3.80;;;8.00;99.90;;;;;;5972412;24;20736;-85
2022/02/22 00:10:30;;;;;;;18.40;5.07;;;8.10;99.90;;;;;;6133182;23;20399;-90
2022/02/22 00:16:35;;;;;;;19.00;5.63;;;8.00;99.90;;;;;;6136905;23;20453;-87
2022/02/22 00:19:19;;;;;;;;;;;;;;;;;;;;;
2022/02/22 00:22:16;;;;;;;16.63;3.87;;;8.00;99.90;;;;;;6101941;23;20908;-87
2022/02/22 00:24:44;;;;;;;18.60;4.47;;;8.00;99.90;;;;;;6127361;23;20427;-84
2022/02/22 00:27:20;;;;;;;22.00;4.30;;;8.00;99.90;;;;;;6105346;23;20443;-86
2022/02/22 00:30:00;;;;;;;14.33;4.87;;;8.00;99.90;;;;;;6102137;23;20472;-86
2022/02/22 00:40:01;;;;;;;22.03;4.80;;;7.90;99.90;;;;;;6090843;23;20508;-86
2022/02/22 00:46:42;;;;;;;19.30;4.43;;;7.90;99.90;;;;;;6112770;23;20471;-83
2022/02/22 00:49:40;;;;;;;21.07;5.33;;;7.90;99.90;;;;;;6126288;23;20462;-84
2022/02/22 00:52:30;;;;;;;13.73;3.77;;;7.90;99.90;;;;;;6113531;23;20718;-85
2022/02/22 00:55:14;;;;;;;20.37;3.73;;;7.90;99.90;;;;;;6129871;23;20412;-85
2022/02/22 00:57:57;;;;;;;16.50;4.17;;;7.90;99.90;;;;;;6097893;23;20440;-84
2022/02/22 01:00:54;;;;;;;12.20;3.40;;;8.00;99.90;;;;;;6098948;23;20512;-83
2022/02/22 01:03:57;;;;;;;19.63;5.50;;;7.90;99.90;;;;;;6115065;23;20539;-83
2022/02/22 01:07:16;;;;;;;16.67;4.83;;;7.90;99.90;;;;;;6097027;23;20424;-84
2022/02/22 01:10:09;;;;;;;12.83;4.17;;;7.90;99.90;;;;;;6096829;23;20944;-83
2022/02/22 01:12:42;;;;;;;9.67;4.00;;;7.90;99.90;;;;;;6093815;23;20416;-83
2022/02/22 01:15:12;;;;;;;15.63;3.40;;;7.90;99.90;;;;;;6109144;23;20424;-85
2022/02/22 01:17:44;;;;;;;14.90;4.60;;;7.90;99.90;;;;;;6100403;23;20485;-84
2022/02/22 01:20:20;;;;;;;14.03;3.57;;;7.90;99.90;;;;;;6099766;23;20741;-85
2022/02/22 01:23:16;;;;;;;16.73;4.00;;;7.90;99.90;;;;;;6096086;23;20475;-86
2022/02/22 01:26:00;;;;;;;18.10;4.17;;;7.80;99.90;;;;;;6097168;23;20433;-85
2022/02/22 01:28:33;;;;;;;16.80;4.87;;;7.80;99.90;;;;;;6099912;23;20408;-84
2022/02/22 01:31:06;;;;;;;19.23;3.70;;;7.70;99.90;;;;;;6100547;23;20475;-84
2022/02/22 01:33:37;;;;;;;18.13;4.30;;;7.70;99.90;;;;;;6097159;23;20420;-82
2022/02/22 01:36:18;;;;;;;16.90;5.50;;;7.70;99.90;;;;;;6097168;23;20435;-86
2022/02/22 01:38:51;;;;;;;10.90;3.17;;;7.70;99.90;;;;;;6099150;23;20409;-85
2022/02/22 01:41:22;;;;;;;17.07;5.20;;;7.70;99.90;;;;;;6097172;23;20425;-84
2022/02/22 01:43:52;;;;;;;12.80;3.17;;;7.60;99.90;;;;;;6099691;23;20465;-85
2022/02/22 01:46:32;;;;;;;13.60;3.63;;;7.60;99.90;;;;;;6102217;23;20429;-84
2022/02/22 01:49:10;;;;;;;16.63;4.20;;;7.60;99.90;;;;;;6110154;23;20436;-85
2022/02/22 01:51:40;;;;;;;13.23;4.00;;;7.60;99.90;;;;;;6118161;23;20433;-84
2022/02/22 01:54:20;;;;;;;18.23;4.43;;;7.60;99.90;;;;;;6118753;23;20457;-86
2022/02/22 01:56:48;;;;;;;15.03;3.73;;;7.60;99.90;;;;;;6121015;23;20496;-84
2022/02/22 01:59:26;;;;;;;22.93;4.13;;;7.60;99.90;;;;;;6117812;23;20464;-85
2022/02/22 02:02:05;;;;;;;23.57;5.40;;;7.50;99.90;;;;;;6115353;23;20432;-85
2022/02/22 02:05:08;;;;;;;12.03;3.93;;;7.50;99.90;;;;;;6100316;23;20515;-84
2022/02/22 02:07:35;;;;;;;17.17;5.53;;;7.50;99.90;;;;;;6103986;23;20433;-84
2022/02/22 02:10:06;;;;;;;21.03;4.43;;;7.50;99.90;;;;;;6103218;23;20456;-83
2022/02/22 02:12:37;;;;;;;12.67;4.00;;;7.50;99.90;;;;;;6103859;23;20397;-85
2022/02/22 02:15:05;;;;;;;19.57;4.70;;;7.50;99.90;;;;;;6102090;23;20944;-86
2022/02/22 02:17:34;;;;;;;16.43;4.27;;;7.50;99.90;;;;;;6103288;23;20496;-84
2022/02/22 02:20:05;;;;;;;17.30;4.40;;;7.50;99.90;;;;;;6096865;23;20484;-83
2022/02/22 02:22:38;;;;;;;15.10;4.40;;;7.50;99.90;;;;;;6099082;23;20416;-83
2022/02/22 02:25:05;;;;;;;23.70;4.87;;;7.60;99.90;;;;;;6104143;23;20405;-86
2022/02/22 02:27:33;;;;;;;14.87;5.40;;;7.60;99.90;;;;;;6108423;23;20438;-84
2022/02/22 02:30:00;;;;;;;22.33;4.70;;;7.60;99.90;;;;;;6097108;23;20411;-84
2022/02/22 02:32:30;;;;;;;21.27;7.90;;;7.60;99.90;;;;;;6100804;23;20409;-87
2022/02/22 02:35:04;;;;;;;19.33;5.33;;;7.50;99.90;;;;;;6097014;23;20613;-86
2022/02/22 02:37:35;;;;;;;15.50;4.97;;;7.50;99.90;;;;;;6101308;23;20772;-85
2022/02/22 02:40:07;;;;;;;29.03;4.90;;;7.50;99.90;;;;;;6079286;23;20397;-85
2022/02/22 02:42:47;;;;;;;16.03;3.67;;;7.40;99.90;;;;;;6130268;23;20400;-84
2022/02/22 02:45:18;;;;;;;18.07;4.10;;;7.40;99.90;;;;;;6101611;23;20414;-84
2022/02/22 02:47:45;;;;;;;24.00;5.63;;;7.40;99.90;;;;;;6100635;23;21035;-82
2022/02/22 02:50:11;;;;;;;17.50;4.10;;;7.40;99.90;;;;;;6126207;23;20414;-84
2022/02/22 02:52:43;;;;;;;15.03;3.50;;;7.40;99.90;;;;;;6123337;23;20383;-84
2022/02/22 02:55:10;;;;;;;20.83;3.77;;;7.40;99.90;;;;;;6122557;23;20412;-82
2022/02/22 02:57:38;;;;;;;17.67;4.83;;;7.40;99.90;;;;;;6136827;23;20432;-86
2022/02/22 03:00:08;;;;;;;11.13;4.07;;;7.30;99.90;;;;;;6122861;23;20408;-84
2022/02/22 03:02:34;;;;;;;17.77;4.60;;;7.30;99.90;;;;;;6103553;23;20408;-85
2022/02/22 03:05:02;;;;;;;12.43;3.20;;;7.30;99.90;;;;;;6130225;23;20447;-85
2022/02/22 03:07:29;;;;;;;14.90;4.40;;;7.30;99.90;;;;;;6130246;23;20464;-84
2022/02/22 03:09:56;;;;;;;17.80;4.30;;;7.30;99.90;;;;;;6130190;23;20491;-85
2022/02/22 03:12:22;;;;;;;19.83;4.10;;;7.30;99.90;;;;;;6127221;23;20900;-83
2022/02/22 03:14:52;;;;;;;14.33;4.43;;;7.30;99.90;;;;;;6128036;23;20411;-85
2022/02/22 03:17:19;;;;;;;19.63;4.60;;;7.30;99.90;;;;;;6127276;23;20439;-84
2022/02/22 03:19:46;;;;;;;18.97;5.03;;;7.30;99.90;;;;;;6126664;23;20439;-85
2022/02/22 03:22:12;;;;;;;13.00;4.67;;;7.30;99.90;;;;;;6127484;23;20815;-85
2022/02/22 03:24:40;;;;;;;10.53;3.47;;;7.30;99.90;;;;;;6127799;23;20907;-86
2022/02/22 03:27:07;;;;;;;19.00;6.10;;;7.30;99.90;;;;;;6129870;23;20432;-84
2022/02/22 03:29:34;;;;;;;24.23;5.10;;;7.30;99.90;;;;;;6133241;23;20418;-84
2022/02/22 03:32:00;;;;;;;12.10;3.90;;;7.30;99.90;;;;;;6133318;23;20423;-84
2022/02/22 03:34:27;;;;;;;23.73;6.67;;;7.30;99.90;;;;;;6126639;23;20412;-83
2022/02/22 03:36:54;;;;;;;24.00;4.73;;;7.30;99.90;;;;;;6125745;23;20440;-85
2022/02/22 03:39:20;;;;;;;20.70;4.80;;;7.30;99.90;;;;;;6129178;23;20466;-84
2022/02/22 03:41:47;;;;;;;14.23;3.47;;;7.30;99.90;;;;;;6127957;23;20487;-85
2022/02/22 03:44:14;;;;;;;21.03;5.00;;;7.30;99.90;;;;;;6130430;23;20439;-86
2022/02/22 03:46:45;;;;;;;16.37;4.13;;;7.30;99.90;;;;;;6128879;23;20438;-86
2022/02/22 03:49:25;;;;;;;18.50;4.53;;;7.20;99.90;;;;;;6104117;23;20752;-85
2022/02/22 03:51:55;;;;;;;23.97;7.40;;;7.20;99.90;;;;;;6129875;23;20411;-85
2022/02/22 03:54:24;;;;;;;20.23;5.30;;;7.20;99.90;;;;;;6129792;23;20734;-86
2022/02/22 03:56:51;;;;;;;14.47;4.03;;;7.20;99.90;;;;;;6126632;23;20511;-85
2022/02/22 03:59:17;;;;;;;17.20;4.47;;;7.20;99.90;;;;;;6123308;23;20429;-84
2022/02/22 04:01:45;;;;;;;16.97;3.97;;;7.20;99.90;;;;;;6126130;23;20521;-84
2022/02/22 04:04:12;;;;;;;20.57;4.10;;;7.30;99.90;;;;;;6125999;23;20471;-85
2022/02/22 04:06:46;;;;;;;17.23;4.30;;;7.30;99.90;;;;;;6128211;23;20443;-87
2022/02/22 04:09:15;;;;;;;12.77;3.13;;;7.30;99.90;;;;;;6146350;23;20431;-83
2022/02/22 04:11:45;;;;;;;18.17;5.30;;;7.20;99.90;;;;;;6129304;23;20416;-85
2022/02/22 04:14:23;;;;;;;15.77;4.10;;;7.10;99.90;;;;;;6103146;23;20411;-85
2022/02/22 04:17:00;;;;;;;17.27;3.93;;;7.10;99.90;;;;;;6134037;23;20519;-83
2022/02/22 04:19:31;;;;;;;10.63;3.80;;;7.10;99.90;;;;;;6104074;23;20475;-86
2022/02/22 04:22:01;;;;;;;20.17;6.93;;;7.10;99.90;;;;;;6126292;23;20416;-86
2022/02/22 04:24:36;;;;;;;14.77;3.60;;;7.10;99.90;;;;;;6126310;23;20436;-84
2022/02/22 04:27:10;;;;;;;18.70;4.50;;;7.20;99.90;;;;;;6129722;23;20446;-86
2022/02/22 04:29:48;;;;;;;14.80;3.23;;;7.10;99.90;;;;;;6109025;23;20415;-85
2022/02/22 04:32:17;;;;;;;13.33;4.17;;;7.10;99.90;;;;;;6136173;23;20408;-84
2022/02/22 04:34:53;;;;;;;11.23;4.00;;;7.00;99.90;;;;;;6136650;23;20419;-84
2022/02/22 04:37:23;;;;;;;21.03;4.37;;;7.10;99.90;;;;;;6128558;23;20449;-85
2022/02/22 04:40:01;;;;;;;17.60;4.77;;;7.00;99.90;;;;;;6126235;23;20410;-84
2022/02/22 04:42:38;;;;;;;13.33;4.10;;;7.00;99.90;;;;;;6127917;23;20416;-85
2022/02/22 04:45:09;;;;;;;15.20;3.57;;;7.10;99.90;;;;;;6128311;23;20457;-84
2022/02/22 04:48:02;;;;;;;18.53;4.23;;;7.00;99.90;;;;;;6128071;23;20481;-85
2022/02/22 04:50:32;;;;;;;11.10;3.33;;;7.10;99.90;;;;;;6130052;23;20381;-86
2022/02/22 04:53:09;;;;;;;20.37;4.33;;;7.10;99.90;;;;;;6126649;23;20407;-84
2022/02/22 04:55:46;;;;;;;23.17;6.13;;;7.10;99.90;;;;;;6127175;23;20531;-84
2022/02/22 04:58:18;;;;;;;23.17;5.40;;;7.00;99.90;;;;;;6129106;23;20487;-84
2022/02/22 05:00:55;;;;;;;9.67;3.03;;;7.10;99.90;;;;;;6116652;23;20384;-85
2022/02/22 05:03:27;;;;;;;16.80;5.50;;;7.10;99.90;;;;;;6098952;23;20971;-84
2022/02/22 05:05:59;;;;;;;20.83;4.17;;;7.10;99.90;;;;;;6134010;23;20435;-86
2022/02/22 05:08:34;;;;;;;18.57;4.33;;;7.10;99.90;;;;;;6143021;23;20399;-83
2022/02/22 05:11:18;;;;;;;9.50;4.63;;;7.00;99.90;;;;;;6141688;23;20402;-83
2022/02/22 05:13:54;;;;;;;17.07;5.87;;;7.00;99.90;;;;;;6129376;23;20415;-86
2022/02/22 05:16:43;;;;;;;17.73;3.83;;;7.00;99.90;;;;;;6095396;23;20439;-86
2022/02/22 05:19:32;;;;;;;10.63;3.80;;;7.10;99.90;;;;;;6132424;23;20420;-85
2022/02/22 05:22:09;;;;;;;13.77;5.33;;;7.00;99.90;;;;;;6106241;23;20908;-85
2022/02/22 05:24:44;;;;;;;21.67;3.60;;;7.00;99.90;;;;;;6129792;23;20471;-85
2022/02/22 05:27:23;;;;;;;17.67;3.53;;;6.90;99.90;;;;;;6131026;23;20432;-83
2022/02/22 05:29:54;;;;;;;17.27;4.53;;;6.90;99.90;;;;;;6100036;23;20905;-83
2022/02/22 05:32:21;;;;;;;16.50;4.20;;;6.80;99.90;;;;;;6123318;23;20396;-85
2022/02/22 05:34:52;;;;;;;16.23;4.67;;;6.90;99.90;;;;;;6130315;23;20416;-82
2022/02/22 05:37:28;;;;;;;16.00;4.43;;;6.90;99.90;;;;;;6139515;23;20439;-85
2022/02/22 05:39:57;;;;;;;14.37;3.43;;;6.90;99.90;;;;;;6130595;23;20512;-85
2022/02/22 05:42:31;;;;;;;14.33;4.60;;;6.80;99.90;;;;;;6128604;23;20412;-83
2022/02/22 05:45:06;;;;;;;17.80;3.97;;;6.80;99.90;;;;;;6106936;23;20450;-83
2022/02/22 05:47:41;;;;;;;14.93;4.77;;;6.80;99.90;;;;;;6101812;23;20442;-83
2022/02/22 05:50:14;;;;;;;13.03;3.30;;;6.80;99.90;;;;;;6122009;23;20400;-85
2022/02/22 05:52:49;;;;;;;18.13;3.70;;;6.80;99.90;;;;;;6130240;23;20411;-86
2022/02/22 05:55:22;;;;;;;17.83;4.30;;;6.80;99.90;;;;;;6129763;23;20429;-85
2022/02/22 05:57:55;;;;;;;14.23;3.87;;;6.70;99.90;;;;;;6104300;23;20430;-85
2022/02/22 06:00:27;;;;;;;24.60;4.80;;;6.80;99.90;;;;;;6127559;23;20485;-85
2022/02/22 06:03:15;;;;;;;13.93;4.20;;;6.70;99.90;;;;;;6127712;23;20819;-85
2022/02/22 06:05:42;;;;;;;15.13;3.60;;;6.80;99.90;;;;;;6102644;23;20473;-85
2022/02/22 06:08:19;;;;;;;12.40;3.47;;;6.70;99.90;;;;;;6128143;23;20411;-83
2022/02/22 06:10:50;;;;;;;14.60;4.00;;;6.70;99.90;;;;;;6128269;23;20780;-86
2022/02/22 06:16:12;;;;;;;15.63;3.60;;;6.70;99.90;;;;;;6120653;23;20470;-85
2022/02/22 06:18:49;;;;;;;14.27;4.53;;;6.60;99.90;;;;;;6129877;23;20411;-86
2022/02/22 06:21:18;;;;;;;15.50;3.63;;;6.70;99.90;;;;;;6130174;23;20439;-85
2022/02/22 06:23:51;;;;;;;22.57;4.63;;;6.70;99.90;;;;;;6131103;23;20780;-85
2022/02/22 06:26:21;;;;;;;16.07;4.33;;;6.60;99.90;;;;;;6127540;23;20486;-86
2022/02/22 06:28:53;;;;;;;11.43;4.80;;;6.70;99.90;;;;;;6126852;23;20416;-85
2022/02/22 06:31:22;;;;;;;19.43;3.67;;;6.70;99.90;;;;;;6129835;23;20411;-86
2022/02/22 06:33:55;;;;;;;15.37;4.10;;;6.70;99.90;;;;;;6129897;23;20419;-86
2022/02/22 06:36:27;;;;;;;15.10;4.00;;;6.60;99.90;;;;;;6126979;23;20775;-85
2022/02/22 06:39:12;;;;;;;16.30;4.40;;;6.70;99.90;;;;;;6129078;23;20446;-85
2022/02/22 06:41:56;;;;;;;22.77;5.20;;;6.60;99.90;;;;;;6107115;23;20414;-85
2022/02/22 06:44:29;;;;;;;18.30;4.70;;;6.60;99.90;;;;;;6102992;23;20922;-85
2022/02/22 06:46:56;;;;;;;16.63;4.57;;;6.60;99.90;;;;;;6101559;23;20432;-86
2022/02/22 06:49:26;;;;;;;16.90;3.73;;;6.60;99.90;;;;;;6127550;23;20442;-85
2022/02/22 06:51:57;;;;;;;28.23;4.60;;;6.70;99.90;;;;;;6130708;23;20423;-87
2022/02/22 06:54:38;;;;;;;15.93;4.90;;;6.70;99.90;;;;;;6130287;23;20932;-80
2022/02/22 06:57:07;;;;;;;13.10;4.10;;;6.70;99.90;;;;;;6128517;23;20512;-84
2022/02/22 06:59:34;;;;;;;14.50;4.43;;;6.80;99.90;;;;;;6128291;23;20479;-85
2022/02/22 07:02:00;;;;;;;15.27;4.63;;;6.80;99.90;;;;;;6129374;23;20419;-86
2022/02/22 07:04:27;;;;;;;17.87;3.90;;;6.80;99.90;;;;;;6130683;23;20447;-86
2022/02/22 07:06:56;;;;;;;15.20;4.47;;;6.80;99.90;;;;;;6129595;23;20515;-86
2022/02/22 07:09:28;;;;;;;18.83;4.43;;;6.80;99.90;;;;;;6128993;23;20415;-85
2022/02/22 07:12:02;;;;;;;9.23;3.73;;;6.80;99.90;;;;;;6128989;23;20424;-84
2022/02/22 07:14:31;;;;;;;13.73;4.10;;;6.80;99.90;;;;;;6103073;23;20447;-83
2022/02/22 07:17:07;;;;;;;16.77;3.83;;;6.80;99.90;;;;;;6130334;23;20463;-84
2022/02/22 07:19:55;;;;;;;11.60;4.33;;;6.80;99.90;;;;;;6144622;23;20426;-84
2022/02/22 07:22:22;;;;;;;14.30;3.80;;;6.90;99.90;;;;;;6146874;23;20464;-85
2022/02/22 07:25:03;;;;;;;17.87;4.93;;;6.90;99.90;;;;;;6148603;23;20478;-84
2022/02/22 07:27:30;;;;;;;12.37;4.50;;;7.10;99.90;;;;;;6145552;23;20761;-86
2022/02/22 07:30:16;;;;;;;14.33;4.00;;;7.40;99.90;;;;;;6121593;23;20413;-86
2022/02/22 07:33:04;;;;;;;17.27;4.50;;;7.30;99.90;;;;;;6146215;23;20429;-86
2022/02/22 07:35:34;;;;;;;22.33;4.53;;;7.30;99.90;;;;;;6120348;23;20415;-86
2022/02/22 07:38:26;;;;;;;18.27;3.70;;;7.40;99.90;;;;;;6142742;23;20412;-86
2022/02/22 07:41:03;;;;;;;;;;;;;;;;;;;;;
2022/02/22 07:43:37;;;;;;;15.50;4.33;;;7.80;99.90;;;;;;6147741;23;20403;-83
2022/02/22 07:46:08;;;;;;;13.40;4.87;;;7.80;99.90;;;;;;6145754;23;20438;-84
2022/02/22 07:49:07;;;;;;;18.50;5.60;;;7.60;99.90;;;;;;6148077;23;20438;-84
2022/02/22 07:52:37;;;;;;;15.60;4.70;;;7.40;99.90;;;;;;6140763;23;20471;-86
2022/02/22 07:56:10;;;;;;;27.00;5.80;;;7.40;99.90;;;;;;6081699;23;20401;-84
2022/02/22 07:59:07;;;;;;;21.83;6.70;;;7.30;99.90;;;;;;6109895;23;20495;-86
2022/02/22 08:02:09;;;;;;;15.63;4.80;;;7.30;99.90;;;;;;6086493;23;20405;-87
2022/02/22 08:05:37;;;;;;;;;;;;;;;;;;;;;
2022/02/22 08:12:29;;;;;;;;;;;;;;;;;;;;;
2022/02/22 08:15:37;;;;;;;11.53;4.70;;;7.60;99.90;;;;;;5840776;24;20471;-86
2022/02/22 08:22:10;;;;;;;11.50;4.47;;;7.80;99.90;;;;;;5974326;23;20427;-86
2022/02/22 08:24:59;;;;;;;;;;;;;;;;;;;;;
2022/02/22 08:27:55;;;;;;;15.73;5.90;;;8.10;99.90;;;;;;5981500;24;20468;-86
2022/02/22 08:30:51;;;;;;;18.10;4.33;;;8.50;99.90;;;;;;5946703;24;20467;-85
2022/02/22 08:34:11;;;;;;;10.03;4.20;;;8.20;99.90;;;;;;5963681;24;20521;-87
2022/02/22 08:37:34;;;;;;;11.17;4.97;;;8.20;99.90;;;;;;5983863;24;20463;-85
2022/02/22 08:40:35;;;;;;;8.57;3.17;;;8.10;99.90;;;;;;5955449;24;20420;-85
2022/02/22 08:43:16;;;;;;;11.77;4.37;;;8.50;99.90;;;;;;6028785;23;21011;-85
2022/02/22 08:46:13;;;;;;;;;;;;;;;;;;;;;
2022/02/22 08:52:29;;;;;;;8.70;4.80;;;9.00;99.90;;;;;;6090711;23;20928;-86
2022/02/22 08:55:33;;;;;;;;;;;;;;;;;;;;;
2022/02/22 08:58:14;;;;;;;14.73;4.17;;;8.90;99.90;;;;;;6101835;23;20735;-86
2022/02/22 09:01:20;;;;;;;;;;;;;;;;;;;;;
2022/02/22 09:04:55;;;;;;;15.17;5.07;;;9.50;99.90;;;;;;6102844;23;20372;-87
2022/02/22 09:08:15;;;;;;;9.30;4.10;;;9.40;99.90;;;;;;6089255;23;20812;-87
2022/02/22 09:11:23;;;;;;;9.03;3.90;;;9.50;99.90;;;;;;6100921;23;20405;-87
2022/02/22 09:14:35;;;;;;;18.33;4.40;;;9.70;99.90;;;;;;6116620;23;20400;-89
2022/02/22 09:17:30;;;;;;;16.73;4.97;;;9.60;99.90;;;;;;6099555;23;20416;-86
2022/02/22 09:20:23;;;;;;;12.27;4.40;;;9.20;99.90;;;;;;6047865;23;20401;-86
2022/02/22 09:23:26;;;;;;;8.60;3.63;;;9.00;99.90;;;;;;6101575;23;20437;-87
2022/02/22 09:26:20;;;;;;;8.67;3.90;;;9.50;99.90;;;;;;6100760;23;20448;-89
2022/02/22 09:28:56;;;;;;;5.57;4.10;;;9.70;99.90;;;;;;6100344;23;20425;-84
2022/02/22 09:31:34;;;;;;;18.63;4.77;;;9.60;99.90;;;;;;6098623;23;20900;-86
2022/02/22 09:34:24;;;;;;;10.17;5.17;;;9.50;99.90;;;;;;6099121;23;20372;-89
2022/02/22 09:36:53;;;;;;;8.13;3.80;;;9.30;99.90;;;;;;6100417;23;20440;-86
2022/02/22 09:40:11;;;;;;;8.10;4.13;;;9.80;99.90;;;;;;6099345;23;20416;-86
2022/02/22 09:42:50;;;;;;;8.80;4.37;;;10.00;99.70;;;;;;6098607;23;20440;-86
2022/02/22 09:45:33;;;;;;;13.43;4.40;;;10.10;99.10;;;;;;6103599;23;20437;-87
2022/02/22 09:48:14;;;;;;;9.17;4.80;;;10.10;98.90;;;;;;6097705;23;20883;-89
2022/02/22 09:54:27;;;;;;;7.63;3.40;;;9.50;99.90;;;;;;6114041;23;20403;-86
2022/02/22 09:56:59;;;;;;;9.03;3.50;;;9.40;99.90;;;;;;6100474;23;20428;-89
2022/02/22 09:59:44;;;;;;;10.27;3.50;;;10.20;98.70;;;;;;6096961;23;20424;-87
2022/02/22 10:02:55;;;;;;;12.47;4.03;;;10.20;97.60;;;;;;6073422;23;20452;-87
2022/02/22 10:05:53;;;;;;;8.13;3.20;;;10.30;97.40;;;;;;6069720;23;20829;-88
2022/02/22 10:08:44;;;;;;;4.53;3.30;;;10.30;97.70;;;;;;5991837;23;20427;-86
2022/02/22 10:11:53;;;;;;;9.10;2.80;;;10.40;96.90;;;;;;6012693;23;20558;-86
2022/02/22 10:15:16;;;;;;;8.37;2.40;;;10.30;97.20;;;;;;6012198;23;20389;-86
2022/02/22 10:18:11;;;;;;;7.90;3.53;;;10.60;96.40;;;;;;6011397;23;20424;-86
2022/02/22 10:21:08;;;;;;;4.83;2.63;;;10.40;95.50;;;;;;6014206;23;20415;-85
2022/02/22 10:24:19;;;;;;;4.00;2.30;;;10.50;95.10;;;;;;5988781;23;20423;-88
2022/02/22 10:27:49;;;;;;;8.43;2.03;;;10.80;94.90;;;;;;5990965;23;20467;-89
2022/02/22 10:30:50;;;;;;;3.77;2.00;;;10.90;94.10;;;;;;6013555;23;20444;-85
2022/02/22 10:33:57;;;;;;;3.40;2.30;;;10.70;93.20;;;;;;5995948;23;20474;-87
2022/02/22 10:37:13;;;;;;;5.20;2.13;;;10.60;93.50;;;;;;6014915;23;20498;-87
2022/02/22 10:47:18;;;;;;;7.73;2.27;;;10.50;93.80;;;;;;6015133;23;20443;-89
2022/02/22 10:50:52;;;;;;;6.57;2.40;;;10.60;94.00;;;;;;6012048;23;20460;-86
2022/02/22 10:53:49;;;;;;;6.20;2.50;;;10.70;94.00;;;;;;5999011;23;20502;-87
2022/02/22 10:56:59;;;;;;;6.03;3.10;;;10.80;94.10;;;;;;6020202;23;20442;-86
2022/02/22 10:59:58;;;;;;;11.57;3.17;;;11.00;94.10;;;;;;6018540;23;20453;-87
2022/02/22 11:06:49;;;;;;;11.80;3.70;;;10.50;95.50;;;;;;6037432;23;20446;-85
2022/02/22 11:12:33;;;;;;;8.27;3.27;;;10.30;95.50;;;;;;6124314;23;20433;-87
2022/02/22 11:19:41;;;;;;;7.40;3.20;;;10.40;96.40;;;;;;6019454;23;20382;-86
2022/02/22 11:22:56;;;;;;;7.07;2.43;;;10.90;96.00;;;;;;6033203;23;20500;-89
2022/02/22 11:25:57;;;;;;;6.97;2.93;;;11.20;94.80;;;;;;6080771;23;20476;-89
2022/02/22 11:29:22;;;;;;;6.43;2.37;;;11.30;95.10;;;;;;6081294;23;20405;-89
2022/02/22 11:32:49;;;;;;;5.83;2.93;;;11.20;95.50;;;;;;6013471;23;20402;-87
2022/02/22 11:35:29;;;;;;;7.53;3.00;;;11.20;95.50;;;;;;6040866;23;20961;-86
2022/02/22 11:39:22;;;;;;;7.07;2.90;;;11.30;95.60;;;;;;5957100;24;20394;-86
2022/02/22 11:46:35;;;;;;;13.60;4.77;;;10.70;96.80;;;;;;5867394;24;20462;-85
2022/02/22 11:50:18;;;;;;;6.40;2.60;;;11.20;96.70;;;;;;5901559;24;20459;-87
2022/02/22 11:54:08;;;;;;;10.40;2.80;;;11.30;96.00;;;;;;5925271;24;20440;-86
2022/02/22 11:57:29;;;;;;;8.43;2.80;;;10.90;96.40;;;;;;5958996;24;20479;-86
2022/02/22 12:01:00;;;;;;;13.70;4.27;;;11.00;96.60;;;;;;5829518;24;20935;-84
2022/02/22 12:11:14;;;;;;;;;;;;;;;;;;;;;
2022/02/22 12:14:44;;;;;;;13.37;3.60;;;11.30;96.40;;;;;;6054392;23;20464;-86
2022/02/22 12:31:54;;;;;;;;;;;;;;;;;;;;;
2022/02/22 12:39:09;;;;;;;7.80;2.60;;;11.00;97.00;;;;;;6063239;23;20408;-87
2022/02/22 12:45:14;;;;;;;8.20;2.57;;;10.60;98.00;;;;;;6054650;23;20441;-87
2022/02/22 12:52:38;;;;;;;7.27;2.93;;;11.10;98.30;;;;;;5910713;24;20430;-85
2022/02/22 12:56:04;;;;;;;5.17;2.47;;;11.10;99.80;;;;;;5867628;24;20788;-84
2022/02/22 12:59:37;;;;;;;;;;;;;;;;;;;;;
2022/02/22 13:06:39;;;;;;;12.03;4.10;;;10.60;99.90;;;;;;5809085;24;20533;-87
2022/02/22 13:10:43;;;;;;;14.10;3.80;;;10.70;99.90;;;;;;5840415;24;20440;-89
2022/02/22 13:14:08;;;;;;;8.87;2.67;;;10.70;99.90;;;;;;5786918;24;20439;-87
2022/02/22 13:17:45;;;;;;;14.03;2.80;;;10.80;99.90;;;;;;5770679;24;20423;-86
2022/02/22 13:27:26;;;;;;;8.30;2.77;;;10.50;99.90;;;;;;6104102;23;20427;-87
2022/02/22 13:35:34;;;;;;;8.30;2.50;;;10.10;99.90;;;;;;5960026;24;20393;-87
2022/02/22 13:39:00;;;;;;;7.50;2.00;;;10.40;99.90;;;;;;5940971;24;20392;-88
2022/02/22 13:42:52;;;;;;;3.53;2.30;;;10.70;99.90;;;;;;5920723;24;20416;-87
2022/02/22 13:46:28;;;;;;;8.93;2.90;;;10.60;99.90;;;;;;5969808;23;20452;-86
2022/02/22 13:49:30;;;;;;;;;;;;;;;;;;;;;
2022/02/22 13:56:08;;;;;;;7.17;2.20;;;10.50;99.90;;;;;;6091698;23;20516;-85
2022/02/22 13:58:57;;;;;;;6.77;3.13;;;10.50;99.90;;;;;;6062359;23;20773;-86
2022/02/22 14:01:54;;;;;;;8.20;2.80;;;10.50;99.90;;;;;;6098695;23;20805;-87
2022/02/22 14:04:47;;;;;;;5.77;1.97;;;10.60;99.90;;;;;;6078858;23;20428;-87
2022/02/22 14:07:25;;;;;;;4.80;2.40;;;10.60;99.90;;;;;;6100685;23;20503;-85
2022/02/22 14:10:06;;;;;;;7.33;2.40;;;10.60;99.90;;;;;;6087482;23;20437;-85
2022/02/22 14:12:39;;;;;;;9.77;1.97;;;10.50;99.90;;;;;;6102943;23;20405;-87
2022/02/22 14:15:20;;;;;;;4.07;2.20;;;10.50;99.90;;;;;;6101161;23;20959;-85
2022/02/22 14:17:59;;;;;;;4.57;2.70;;;10.40;99.90;;;;;;6105496;23;20417;-86
2022/02/22 14:20:47;;;;;;;5.77;2.30;;;10.50;99.90;;;;;;6102125;23;20436;-85
2022/02/22 14:23:39;;;;;;;6.80;2.90;;;10.60;99.90;;;;;;6085248;23;20396;-85
2022/02/22 14:26:09;;;;;;;2.77;1.70;;;10.70;99.90;;;;;;6102686;23;20452;-84
2022/02/22 14:29:03;;;;;;;4.53;2.10;;;10.70;99.90;;;;;;6060275;23;20888;-84
2022/02/22 14:31:39;;;;;;;3.70;1.73;;;10.70;99.90;;;;;;6103136;23;20412;-86
2022/02/22 14:34:11;;;;;;;5.93;2.00;;;10.70;99.90;;;;;;6103845;23;20455;-84
2022/02/22 14:36:38;;;;;;;4.20;1.80;;;10.90;99.90;;;;;;6104385;23;20986;-85
2022/02/22 14:39:18;;;;;;;4.20;2.03;;;10.80;99.90;;;;;;6081100;23;21010;-86
2022/02/22 14:41:45;;;;;;;2.97;1.70;;;10.50;99.90;;;;;;6101674;23;21009;-84
2022/02/22 14:44:23;;;;;;;5.77;2.10;;;10.40;99.90;;;;;;6106835;23;20433;-86
2022/02/22 14:47:01;;;;;;;4.00;1.20;;;10.90;99.90;;;;;;6112138;23;20444;-86
2022/02/22 14:49:46;;;;;;;1.97;1.60;;;10.90;99.90;;;;;;6103682;23;20409;-85
2022/02/22 14:52:20;;;;;;;2.63;1.70;;;10.90;99.90;;;;;;6101460;23;20900;-85
2022/02/22 14:55:47;;;;;;;1.33;1.17;;;10.70;99.90;;;;;;6104814;23;20508;-85
2022/02/22 14:58:25;;;;;;;1.23;1.07;;;10.90;99.90;;;;;;6106014;23;20842;-85
2022/02/22 15:01:10;;;;;;;2.97;1.03;;;11.30;99.90;;;;;;6103581;23;20420;-83
2022/02/22 15:03:51;;;;;;;3.53;1.53;;;11.10;99.90;;;;;;6092954;23;20419;-85
2022/02/22 15:06:25;;;;;;;3.20;1.40;;;11.00;99.90;;;;;;6092338;23;20429;-84
2022/02/22 15:09:13;;;;;;;2.50;1.20;;;11.00;99.90;;;;;;6092426;23;20413;-85
2022/02/22 15:12:02;;;;;;;3.53;3.07;;;11.00;99.90;;;;;;6097538;23;20397;-85
2022/02/22 15:17:31;;;;;;;4.67;1.90;;;10.80;99.90;;;;;;6146299;23;20420;-84
2022/02/22 15:20:10;;;;;;;4.17;2.03;;;10.70;99.90;;;;;;6127497;23;20471;-85
2022/02/22 15:23:09;;;;;;;3.90;1.93;;;10.70;99.90;;;;;;6127616;23;20431;-82
2022/02/22 15:26:01;;;;;;;4.30;1.83;;;10.70;99.90;;;;;;6095062;23;20498;-84
2022/02/22 15:28:39;;;;;;;4.63;1.37;;;10.70;99.90;;;;;;6093613;23;20416;-87
2022/02/22 15:31:31;;;;;;;;;;;;;;;;;;;;;
2022/02/22 15:34:29;;;;;;;4.53;1.90;;;10.80;99.90;;;;;;6118527;23;20491;-84
2022/02/22 15:37:34;;;;;;;2.00;1.50;;;10.80;99.90;;;;;;6122225;23;20756;-83
2022/02/22 15:40:10;;;;;;;7.57;3.07;;;10.90;99.90;;;;;;6113224;23;20431;-84
2022/02/22 15:42:58;;;;;;;5.40;1.40;;;10.90;99.90;;;;;;6099309;23;20826;-86
2022/02/22 15:45:41;;;;;;;3.67;1.70;;;10.90;99.90;;;;;;6099880;23;20449;-85
2022/02/22 15:48:29;;;;;;;4.97;1.53;;;10.90;99.90;;;;;;6094163;23;20455;-85
2022/02/22 15:51:30;;;;;;;4.93;2.10;;;11.00;99.90;;;;;;6121253;23;20420;-85
2022/02/22 15:54:13;;;;;;;3.33;1.67;;;11.10;99.90;;;;;;6096182;23;20407;-86
2022/02/22 15:57:00;;;;;;;4.90;1.60;;;11.00;99.90;;;;;;6097315;23;20494;-83
2022/02/22 15:59:45;;;;;;;3.10;1.87;;;11.30;99.90;;;;;;6095632;23;20418;-84
2022/02/22 16:03:01;;;;;;;4.47;1.90;;;11.10;99.90;;;;;;6105176;23;20423;-85
2022/02/22 16:06:12;;;;;;;4.17;1.50;;;11.20;99.90;;;;;;6113488;23;20481;-87
2022/02/22 16:12:21;;;;;;;3.97;1.80;;;11.20;99.90;;;;;;6028443;23;20758;-84
2022/02/22 16:15:06;;;;;;;7.27;2.37;;;11.10;99.90;;;;;;6005600;23;20840;-84
2022/02/22 16:17:52;;;;;;;5.80;2.10;;;11.10;99.90;;;;;;5982120;23;20502;-84
2022/02/22 16:20:57;;;;;;;3.93;1.73;;;11.10;99.90;;;;;;5985319;23;20582;-83
2022/02/22 16:23:35;;;;;;;8.60;2.30;;;11.10;99.90;;;;;;6003997;23;20419;-84
2022/02/22 16:26:32;;;;;;;4.37;2.47;;;11.30;99.90;;;;;;6004409;23;21016;-83
2022/02/22 16:29:17;;;;;;;4.57;2.00;;;11.30;99.90;;;;;;6004678;23;20626;-82
2022/02/22 16:32:05;;;;;;;7.50;2.50;;;11.20;99.90;;;;;;5915437;24;20474;-84
2022/02/22 16:35:13;;;;;;;6.53;3.17;;;11.30;99.90;;;;;;5979498;23;20495;-84
2022/02/22 16:38:04;;;;;;;6.23;2.10;;;11.40;99.90;;;;;;5984092;23;20406;-84
2022/02/22 16:40:52;;;;;;;4.20;2.20;;;11.30;99.90;;;;;;6006233;23;20435;-85